createdAt,value
2022-11-29T00:00:47.094Z,33.80
2022-11-29T00:03:15.121Z,34.72
2022-11-29T00:05:41.814Z,32.33
2022-11-29T00:08:08.427Z,35.03
2022-11-29T00:10:38.080Z,33.97
2022-11-29T00:13:05.289Z,34.78
2022-11-29T00:15:38.780Z,32.33
2022-11-29T00:18:07.186Z,33.45
2022-11-29T00:20:34.730Z,33.95
2022-11-29T00:25:28.173Z,31.43
2022-11-29T00:27:54.690Z,31.10
2022-11-29T00:30:21.583Z,36.13
2022-11-29T00:32:48.252Z,33.90
2022-11-29T00:35:14.768Z,37.93
2022-11-29T00:37:41.309Z,32.28
2022-11-29T00:40:08.597Z,31.25
2022-11-29T00:42:35.053Z,36.28
2022-11-29T00:45:01.552Z,37.85
2022-11-29T00:47:28.018Z,32.45
2022-11-29T00:49:54.596Z,33.30
2022-11-29T00:52:21.032Z,32.80
2022-11-29T00:54:47.602Z,37.63
2022-11-29T00:57:14.039Z,30.92
2022-11-29T00:59:40.560Z,35.00
2022-11-29T01:02:07.054Z,34.67
2022-11-29T01:04:33.632Z,33.42
2022-11-29T01:07:00.109Z,34.85
2022-11-29T01:09:26.663Z,33.63
2022-11-29T01:11:53.188Z,38.08
2022-11-29T01:14:19.781Z,37.17
2022-11-29T01:16:46.330Z,31.83
2022-11-29T01:19:12.889Z,29.80
2022-11-29T01:21:39.582Z,34.83
2022-11-29T01:24:06.216Z,34.93
2022-11-29T01:26:33.165Z,35.05
2022-11-29T01:28:59.796Z,39.72
2022-11-29T01:31:32.669Z,35.50
2022-11-29T01:34:01.876Z,32.53
2022-11-29T01:36:28.774Z,37.13
2022-11-29T01:38:55.380Z,37.72
2022-11-29T01:41:26.880Z,34.55
2022-11-29T01:44:11.730Z,34.53
2022-11-29T01:46:46.010Z,37.33
2022-11-29T01:49:21.698Z,32.97
2022-11-29T01:52:04.883Z,33.15
2022-11-29T01:54:34.076Z,32.67
2022-11-29T01:57:05.464Z,32.97
2022-11-29T01:59:32.347Z,35.40
2022-11-29T02:02:11.907Z,39.22
2022-11-29T02:04:41.603Z,33.67
2022-11-29T02:07:08.720Z,35.15
2022-11-29T02:09:35.227Z,37.92
2022-11-29T02:12:31.291Z,33.28
2022-11-29T02:15:09.887Z,38.10
2022-11-29T02:17:59.636Z,33.58
2022-11-29T02:20:50.867Z,37.63
2022-11-29T02:23:39.526Z,35.30
2022-11-29T02:26:36.438Z,34.90
2022-11-29T02:29:54.462Z,39.53
2022-11-29T02:32:42.467Z,35.75
2022-11-29T02:35:36.626Z,34.13
2022-11-29T02:38:18.419Z,39.22
2022-11-29T02:40:53.212Z,33.33
2022-11-29T02:43:57.987Z,39.83
2022-11-29T02:46:27.326Z,37.42
2022-11-29T02:49:16.815Z,31.17
2022-11-29T02:52:00.256Z,39.33
2022-11-29T02:54:52.438Z,39.53
2022-11-29T02:57:38.458Z,36.90
2022-11-29T03:00:07.203Z,35.47
2022-11-29T03:02:53.530Z,36.83
2022-11-29T03:05:38.788Z,37.42
2022-11-29T03:08:24.130Z,35.40
2022-11-29T03:11:07.220Z,40.55
2022-11-29T03:13:50.855Z,36.05
2022-11-29T03:16:48.549Z,40.08
2022-11-29T03:19:31.175Z,37.65
2022-11-29T03:22:12.754Z,37.65
2022-11-29T03:24:54.994Z,36.92
2022-11-29T03:27:28.788Z,37.80
2022-11-29T03:29:59.591Z,41.28
2022-11-29T03:32:33.174Z,38.28
2022-11-29T03:35:07.702Z,37.10
2022-11-29T03:37:52.965Z,39.80
2022-11-29T03:40:29.468Z,35.53
2022-11-29T03:43:06.977Z,37.93
2022-11-29T03:48:12.466Z,35.92
2022-11-29T03:50:44.091Z,37.95
2022-11-29T03:53:25.557Z,42.65
2022-11-29T03:56:03.986Z,43.67
2022-11-29T03:59:00.183Z,44.60
2022-11-29T04:01:50.791Z,41.28
2022-11-29T04:04:54.833Z,44.45
2022-11-29T04:07:24.277Z,42.13
2022-11-29T04:09:59.610Z,40.95
2022-11-29T04:13:00.691Z,48.00
2022-11-29T04:16:03.533Z,46.17
2022-11-29T04:18:51.694Z,52.25
2022-11-29T04:21:34.969Z,45.00
2022-11-29T04:24:39.915Z,41.83
2022-11-29T04:27:18.188Z,46.17
2022-11-29T04:29:50.547Z,44.35
2022-11-29T04:32:39.688Z,43.92
2022-11-29T04:35:24.207Z,40.08
2022-11-29T04:38:15.365Z,40.97
2022-11-29T04:41:00.518Z,43.58
2022-11-29T04:43:50.613Z,45.20
2022-11-29T04:47:13.021Z,42.05
2022-11-29T04:50:24.351Z,46.55
2022-11-29T04:53:13.668Z,41.22
2022-11-29T04:55:56.783Z,44.40
2022-11-29T04:58:55.073Z,38.75
2022-11-29T05:01:36.188Z,44.35
2022-11-29T05:04:08.604Z,43.28
2022-11-29T05:06:43.848Z,40.50
2022-11-29T05:09:32.924Z,47.10
2022-11-29T05:12:14.197Z,44.58
2022-11-29T05:15:18.358Z,44.08
2022-11-29T05:18:07.470Z,37.05
2022-11-29T05:20:54.141Z,41.35
2022-11-29T05:23:38.456Z,43.42
2022-11-29T05:26:13.050Z,40.30
2022-11-29T05:28:57.992Z,42.30
2022-11-29T05:31:46.450Z,40.15
2022-11-29T05:34:35.153Z,49.63
2022-11-29T05:37:26.153Z,39.40
2022-11-29T05:40:27.028Z,39.40
2022-11-29T05:43:05.608Z,42.17
2022-11-29T05:45:41.182Z,41.78
2022-11-29T05:48:17.652Z,42.25
2022-11-29T05:51:10.333Z,39.10
2022-11-29T05:54:09.441Z,41.38
2022-11-29T05:56:53.217Z,42.80
2022-11-29T05:59:25.057Z,42.63
2022-11-29T06:02:05.977Z,47.50
2022-11-29T06:04:57.364Z,40.95
2022-11-29T06:07:38.804Z,46.50
2022-11-29T06:10:26.143Z,47.60
2022-11-29T06:13:11.444Z,45.28
2022-11-29T06:15:51.546Z,46.15
2022-11-29T06:18:18.012Z,43.20
2022-11-29T06:21:13.255Z,43.65
2022-11-29T06:23:41.428Z,41.47
2022-11-29T06:26:24.179Z,42.58
2022-11-29T06:28:50.617Z,44.63
2022-11-29T06:31:38.472Z,45.83
2022-11-29T06:34:46.552Z,40.78
2022-11-29T06:37:35.624Z,44.58
2022-11-29T06:40:02.376Z,38.08
2022-11-29T06:42:28.906Z,42.80
2022-11-29T06:44:55.825Z,40.25
2022-11-29T06:48:02.429Z,43.67
2022-11-29T06:51:06.371Z,40.97
2022-11-29T06:53:35.923Z,41.45
2022-11-29T06:56:04.987Z,41.00
2022-11-29T06:58:50.431Z,42.88
2022-11-29T07:01:28.796Z,39.50
2022-11-29T07:04:17.220Z,41.40
2022-11-29T07:06:44.026Z,40.47
2022-11-29T07:09:15.211Z,41.60
2022-11-29T07:11:42.931Z,44.75
2022-11-29T07:14:10.054Z,43.70
2022-11-29T07:17:04.333Z,45.38
2022-11-29T07:19:43.197Z,40.22
2022-11-29T07:22:40.132Z,37.42
2022-11-29T07:25:45.532Z,40.55
2022-11-29T07:28:51.093Z,39.40
2022-11-29T07:31:26.380Z,38.58
2022-11-29T07:34:04.909Z,40.05
2022-11-29T07:36:44.238Z,40.83
2022-11-29T07:39:20.260Z,38.67
2022-11-29T07:41:51.337Z,40.40
2022-11-29T07:44:37.332Z,44.30
2022-11-29T07:47:03.897Z,40.63
2022-11-29T07:49:30.600Z,43.83
2022-11-29T07:51:57.240Z,43.77
2022-11-29T07:54:24.028Z,41.00
2022-11-29T07:56:50.496Z,46.13
2022-11-29T07:59:17.093Z,43.28
2022-11-29T08:01:43.835Z,44.07
2022-11-29T08:04:10.412Z,40.47
2022-11-29T08:06:36.948Z,46.63
2022-11-29T08:09:04.609Z,42.55
2022-11-29T08:11:31.265Z,43.88
2022-11-29T08:13:59.774Z,41.43
2022-11-29T08:16:26.880Z,46.60
2022-11-29T08:18:53.592Z,41.08
2022-11-29T08:21:20.134Z,43.73
2022-11-29T08:23:47.717Z,44.88
2022-11-29T08:28:41.311Z,45.55
2022-11-29T08:31:10.127Z,43.28
2022-11-29T08:33:38.621Z,47.25
2022-11-29T08:36:09.580Z,41.28
2022-11-29T08:38:36.101Z,39.58
2022-11-29T08:41:07.805Z,46.35
2022-11-29T08:43:34.680Z,38.88
2022-11-29T08:46:01.515Z,46.30
2022-11-29T08:48:28.054Z,36.40
2022-11-29T08:50:56.055Z,37.53
2022-11-29T08:53:41.729Z,34.60
2022-11-29T08:56:41.856Z,41.05
2022-11-29T08:58:57.251Z,41.40
2022-11-29T09:01:23.838Z,36.38
2022-11-29T09:03:59.485Z,35.13
2022-11-29T09:06:28.061Z,38.20
2022-11-29T09:08:56.458Z,38.92
2022-11-29T09:11:24.995Z,38.10
2022-11-29T09:13:54.468Z,40.58
2022-11-29T09:16:23.277Z,43.85
2022-11-29T09:18:51.834Z,36.92
2022-11-29T09:21:19.019Z,45.25
2022-11-29T09:23:46.241Z,44.42
2022-11-29T09:26:18.386Z,43.15
2022-11-29T09:28:45.842Z,39.45
2022-11-29T09:31:15.731Z,39.28
2022-11-29T09:33:42.511Z,42.92
2022-11-29T09:36:11.164Z,52.38
2022-11-29T09:38:38.192Z,47.05
2022-11-29T09:41:23.110Z,54.65
2022-11-29T09:44:17.123Z,48.25
2022-11-29T09:47:14.870Z,41.05
2022-11-29T09:49:45.899Z,41.00
2022-11-29T09:53:00.886Z,42.60
2022-11-29T09:55:33.238Z,42.83
2022-11-29T09:58:01.063Z,42.70
2022-11-29T10:00:29.544Z,40.30
2022-11-29T10:03:09.932Z,40.80
2022-11-29T10:05:44.348Z,45.97
2022-11-29T10:08:23.301Z,50.90
2022-11-29T10:10:52.979Z,45.92
2022-11-29T10:13:38.143Z,42.67
2022-11-29T10:16:13.041Z,39.97
2022-11-29T10:18:56.006Z,40.80
2022-11-29T10:21:28.002Z,49.28
2022-11-29T10:23:57.654Z,38.75
2022-11-29T10:26:25.893Z,43.75
2022-11-29T10:28:57.524Z,42.33
2022-11-29T10:31:29.442Z,46.28
2022-11-29T10:33:58.276Z,42.60
2022-11-29T10:36:40.460Z,39.83
2022-11-29T10:39:23.147Z,42.25
2022-11-29T10:41:54.674Z,39.92
2022-11-29T10:44:21.578Z,44.35
2022-11-29T10:46:48.420Z,41.90
2022-11-29T10:49:18.695Z,43.28
2022-11-29T10:51:46.833Z,42.85
2022-11-29T10:54:31.119Z,43.35
2022-11-29T10:56:59.490Z,75.95
2022-11-29T10:59:29.154Z,54.15
2022-11-29T11:01:57.247Z,41.42
2022-11-29T11:04:31.991Z,44.80
2022-11-29T11:07:02.285Z,40.05
2022-11-29T11:09:31.372Z,43.72
2022-11-29T11:12:00.245Z,43.67
2022-11-29T11:14:33.093Z,42.67
2022-11-29T11:17:20.855Z,39.17
2022-11-29T11:20:27.261Z,37.05
2022-11-29T11:23:02.251Z,41.33
2022-11-29T11:25:35.119Z,44.05
2022-11-29T11:28:21.911Z,44.67
2022-11-29T11:31:02.096Z,39.70
2022-11-29T11:33:35.274Z,44.30
2022-11-29T11:36:09.717Z,42.22
2022-11-29T11:38:48.973Z,45.42
2022-11-29T11:41:22.867Z,42.42
2022-11-29T11:43:59.955Z,45.30
2022-11-29T11:46:46.806Z,44.47
2022-11-29T11:49:21.081Z,46.90
2022-11-29T11:51:47.596Z,50.10
2022-11-29T11:54:15.436Z,44.72
2022-11-29T11:56:42.553Z,42.67
2022-11-29T11:59:21.040Z,49.15
2022-11-29T12:01:48.135Z,43.80
2022-11-29T12:04:23.529Z,46.40
2022-11-29T12:07:02.968Z,47.45
2022-11-29T12:09:46.421Z,42.63
2022-11-29T12:12:21.277Z,40.65
2022-11-29T12:15:04.611Z,44.05
2022-11-29T12:17:36.791Z,41.20
2022-11-29T12:20:10.488Z,40.35
2022-11-29T12:23:07.942Z,43.17
2022-11-29T12:25:46.772Z,44.80
2022-11-29T12:28:20.296Z,45.10
2022-11-29T12:31:03.197Z,45.45
2022-11-29T12:33:55.830Z,46.00
2022-11-29T12:36:37.313Z,43.85
2022-11-29T12:39:33.469Z,42.22
2022-11-29T12:42:35.965Z,41.50
2022-11-29T12:45:20.638Z,44.13
2022-11-29T12:48:02.264Z,42.30
2022-11-29T12:50:39.096Z,44.38
2022-11-29T12:53:22.544Z,43.28
2022-11-29T12:56:07.359Z,41.33
2022-11-29T12:58:56.288Z,43.45
2022-11-29T13:01:27.674Z,47.17
2022-11-29T13:04:09.124Z,43.13
2022-11-29T13:07:30.927Z,44.20
2022-11-29T13:10:17.894Z,46.17
2022-11-29T13:12:53.688Z,46.00
2022-11-29T13:15:51.546Z,50.75
2022-11-29T13:18:44.419Z,43.92
2022-11-29T13:21:15.498Z,43.88
2022-11-29T13:26:33.132Z,41.30
2022-11-29T13:29:01.779Z,40.53
2022-11-29T13:31:28.959Z,48.80
2022-11-29T13:34:01.479Z,43.10
2022-11-29T13:37:05.605Z,45.72
2022-11-29T13:39:39.382Z,46.10
2022-11-29T13:42:26.733Z,46.15
2022-11-29T13:45:07.597Z,49.28
2022-11-29T13:47:47.909Z,46.75
2022-11-29T13:50:49.928Z,41.67
2022-11-29T13:53:21.776Z,44.10
2022-11-29T13:56:02.080Z,42.13
2022-11-29T13:58:28.758Z,43.72
2022-11-29T14:01:01.630Z,46.20
2022-11-29T14:03:33.312Z,99.70
2022-11-29T14:06:03.318Z,66.65
2022-11-29T14:09:02.538Z,54.05
2022-11-29T14:11:46.040Z,55.33
2022-11-29T14:14:27.501Z,68.05
2022-11-29T14:17:29.076Z,48.97
2022-11-29T14:20:30.594Z,50.00
2022-11-29T14:23:07.586Z,46.75
2022-11-29T14:26:00.862Z,52.58
2022-11-29T14:28:31.289Z,48.03
2022-11-29T14:31:03.075Z,57.22
2022-11-29T14:33:56.494Z,55.08
2022-11-29T14:36:45.662Z,57.50
2022-11-29T14:39:43.632Z,53.67
2022-11-29T14:42:22.118Z,49.55
2022-11-29T14:44:48.596Z,47.75
2022-11-29T14:47:47.201Z,45.20
2022-11-29T14:50:35.784Z,50.38
2022-11-29T14:53:03.847Z,49.17
2022-11-29T14:55:36.539Z,53.90
2022-11-29T14:58:04.069Z,49.42
2022-11-29T15:03:34.857Z,45.80
2022-11-29T15:06:25.127Z,49.72
2022-11-29T15:09:02.080Z,50.08
2022-11-29T15:11:37.652Z,42.85
2022-11-29T15:14:31.951Z,47.60
2022-11-29T15:17:29.133Z,104.32
2022-11-29T15:20:13.911Z,73.28
2022-11-29T15:22:52.401Z,46.15
2022-11-29T15:25:31.651Z,46.35
2022-11-29T15:28:03.709Z,44.55
2022-11-29T15:30:38.983Z,47.65
2022-11-29T15:33:08.684Z,45.65
2022-11-29T15:35:36.226Z,45.42
2022-11-29T15:40:35.166Z,44.10
2022-11-29T15:43:16.579Z,49.13
2022-11-29T15:45:51.348Z,42.17
2022-11-29T15:48:25.217Z,50.90
2022-11-29T15:51:03.824Z,49.67
2022-11-29T15:53:39.781Z,45.83
2022-11-29T15:56:33.547Z,46.28
2022-11-29T15:59:08.485Z,47.85
2022-11-29T16:01:36.137Z,49.72
2022-11-29T16:04:02.789Z,49.25
2022-11-29T16:06:38.184Z,58.07
2022-11-29T16:09:09.819Z,49.78
2022-11-29T16:11:37.160Z,52.88
2022-11-29T16:14:23.824Z,54.42
2022-11-29T16:16:52.639Z,50.80
2022-11-29T16:19:28.473Z,48.97
2022-11-29T16:22:11.600Z,50.28
2022-11-29T16:24:40.124Z,46.78
2022-11-29T16:27:07.969Z,51.38
2022-11-29T16:29:37.251Z,52.17
2022-11-29T16:32:27.106Z,54.55
2022-11-29T16:34:54.932Z,59.40
2022-11-29T16:37:26.795Z,54.38
2022-11-29T16:39:59.442Z,54.25
2022-11-29T16:42:30.431Z,53.83
2022-11-29T16:45:05.632Z,54.65
2022-11-29T16:47:46.849Z,59.10
2022-11-29T16:50:16.740Z,49.53
2022-11-29T16:52:43.923Z,58.05
2022-11-29T16:55:10.402Z,52.20
2022-11-29T16:57:37.882Z,52.97
2022-11-29T17:00:33.969Z,52.70
2022-11-29T17:03:00.747Z,52.42
2022-11-29T17:05:27.583Z,55.83
2022-11-29T17:07:54.669Z,54.03
2022-11-29T17:10:24.262Z,53.47
2022-11-29T17:12:51.278Z,60.42
2022-11-29T17:15:17.796Z,53.38
2022-11-29T17:17:44.333Z,53.38
2022-11-29T17:20:13.168Z,60.72
2022-11-29T17:22:40.364Z,56.67
2022-11-29T17:25:07.415Z,54.70
2022-11-29T17:27:33.904Z,59.17
2022-11-29T17:30:00.451Z,51.85
2022-11-29T17:32:27.320Z,62.65
2022-11-29T17:34:54.341Z,63.35
2022-11-29T17:37:20.957Z,57.92
2022-11-29T17:39:49.197Z,60.10
2022-11-29T17:42:15.936Z,55.90
2022-11-29T17:44:42.501Z,62.50
2022-11-29T17:47:09.247Z,57.08
2022-11-29T17:49:35.848Z,60.60
2022-11-29T17:52:02.673Z,58.00
2022-11-29T17:54:32.985Z,62.97
2022-11-29T17:57:00.967Z,63.22
2022-11-29T17:59:27.410Z,54.78
2022-11-29T18:01:53.841Z,56.50
2022-11-29T18:04:20.523Z,56.42
2022-11-29T18:06:50.256Z,53.93
2022-11-29T18:09:18.278Z,54.65
2022-11-29T18:11:48.640Z,61.45
2022-11-29T18:14:23.308Z,59.50
2022-11-29T18:16:50.318Z,59.05
2022-11-29T18:19:19.164Z,58.42
2022-11-29T18:21:45.927Z,56.80
2022-11-29T18:24:12.651Z,55.90
2022-11-29T18:26:39.740Z,58.03
2022-11-29T18:29:07.350Z,55.13
2022-11-29T18:36:34.245Z,47.40
2022-11-29T18:39:09.895Z,57.25
2022-11-29T18:41:37.532Z,56.22
2022-11-29T18:46:32.982Z,50.70
2022-11-29T18:51:30.312Z,47.28
2022-11-29T18:53:58.327Z,53.17
2022-11-29T18:56:28.045Z,48.90
2022-11-29T18:58:59.167Z,52.95
2022-11-29T19:01:28.119Z,49.75
2022-11-29T19:03:56.822Z,51.55
2022-11-29T19:06:28.896Z,51.70
2022-11-29T19:08:58.477Z,57.08
2022-11-29T19:11:30.179Z,49.58
2022-11-29T19:13:59.982Z,50.67
2022-11-29T19:16:28.996Z,48.38
2022-11-29T19:18:57.595Z,49.67
2022-11-29T19:21:26.323Z,46.70
2022-11-29T19:23:54.889Z,49.70
2022-11-29T19:26:22.485Z,50.85
2022-11-29T19:31:17.853Z,50.63
2022-11-29T19:33:45.632Z,43.85
2022-11-29T19:36:17.712Z,49.63
2022-11-29T19:38:48.849Z,46.63
2022-11-29T19:41:28.265Z,52.65
2022-11-29T19:44:00.102Z,48.03
2022-11-29T19:46:29.271Z,43.92
2022-11-29T19:48:56.894Z,48.72
2022-11-29T19:53:54.699Z,39.97
2022-11-29T19:56:21.644Z,44.70
2022-11-29T19:58:48.802Z,39.25
2022-11-29T20:01:18.551Z,41.53
2022-11-29T20:03:45.299Z,44.05
2022-11-29T20:06:13.655Z,43.20
2022-11-29T20:08:40.773Z,41.70
2022-11-29T20:11:28.584Z,48.22
2022-11-29T20:14:02.594Z,38.38
2022-11-29T20:16:30.315Z,45.03
2022-11-29T20:18:58.027Z,39.83
2022-11-29T20:24:00.169Z,38.40
2022-11-29T20:26:30.553Z,36.40
2022-11-29T20:28:57.211Z,38.33
2022-11-29T20:31:24.102Z,37.57
2022-11-29T20:33:52.906Z,41.47
2022-11-29T20:36:29.174Z,35.50
2022-11-29T20:39:06.207Z,37.00
2022-11-29T20:41:38.584Z,38.30
2022-11-29T20:44:05.315Z,35.63
2022-11-29T20:46:32.127Z,36.17
2022-11-29T20:49:04.713Z,36.55
2022-11-29T20:51:40.263Z,37.38
2022-11-29T20:54:06.781Z,34.30
2022-11-29T20:56:33.301Z,34.00
2022-11-29T20:58:59.912Z,36.22
2022-11-29T21:01:26.466Z,39.47
2022-11-29T21:03:53.854Z,39.90
2022-11-29T21:06:20.416Z,36.95
2022-11-29T21:08:48.223Z,40.77
2022-11-29T21:13:41.727Z,33.15
2022-11-29T21:16:11.133Z,38.33
2022-11-29T21:18:38.206Z,32.90
2022-11-29T21:21:20.780Z,36.58
2022-11-29T21:24:03.106Z,36.72
2022-11-29T21:26:42.176Z,33.83
2022-11-29T21:29:19.264Z,35.95
2022-11-29T21:31:47.661Z,39.72
2022-11-29T21:34:14.283Z,35.33
2022-11-29T21:36:41.181Z,37.97
2022-11-29T21:39:10.798Z,35.30
2022-11-29T21:41:37.251Z,36.55
2022-11-29T21:44:07.000Z,36.13
2022-11-29T21:46:34.491Z,34.08
2022-11-29T21:49:01.104Z,37.78
2022-11-29T21:51:27.567Z,33.45
2022-11-29T21:53:54.079Z,38.20
2022-11-29T21:56:20.695Z,35.08
2022-11-29T21:58:47.309Z,41.47
2022-11-29T22:01:16.586Z,34.17
2022-11-29T22:03:44.252Z,33.80
2022-11-29T22:08:40.609Z,36.22
2022-11-29T22:11:12.645Z,32.63
2022-11-29T22:13:59.649Z,34.20
2022-11-29T22:16:26.324Z,33.85
2022-11-29T22:18:53.232Z,35.88
2022-11-29T22:21:20.072Z,30.95
2022-11-29T22:23:46.564Z,32.75
2022-11-29T22:26:13.465Z,30.83
2022-11-29T22:28:39.933Z,33.33
2022-11-29T22:31:09.499Z,36.63
2022-11-29T22:33:36.575Z,34.17
2022-11-29T22:36:08.271Z,35.30
2022-11-29T22:38:35.079Z,36.08
2022-11-29T22:41:04.487Z,32.67
2022-11-29T22:43:32.337Z,36.83
2022-11-29T22:46:05.995Z,35.50
2022-11-29T22:48:38.180Z,32.92
2022-11-29T22:51:11.321Z,33.72
2022-11-29T22:53:39.584Z,34.65
2022-11-29T22:56:08.677Z,36.60
2022-11-29T22:58:36.182Z,33.45
2022-11-29T23:01:05.162Z,32.80
2022-11-29T23:03:36.557Z,37.72
2022-11-29T23:06:08.065Z,36.47
2022-11-29T23:08:35.170Z,32.63
2022-11-29T23:11:06.557Z,31.33
2022-11-29T23:13:37.812Z,31.15
2022-11-29T23:16:06.240Z,30.83
2022-11-29T23:18:33.004Z,31.08
2022-11-29T23:21:05.412Z,32.97
2022-11-29T23:23:32.077Z,34.35
2022-11-29T23:25:59.435Z,35.30
2022-11-29T23:28:26.716Z,31.63
2022-11-29T23:30:54.486Z,33.58
2022-11-29T23:33:24.222Z,34.90
2022-11-29T23:35:51.496Z,31.58
2022-11-29T23:38:18.331Z,32.25
2022-11-29T23:40:44.850Z,32.92
2022-11-29T23:43:11.394Z,29.92
2022-11-29T23:45:41.871Z,32.67
2022-11-29T23:48:08.457Z,31.33
2022-11-29T23:50:35.109Z,29.80
2022-11-29T23:53:01.653Z,37.17
2022-11-29T23:55:28.166Z,33.97
2022-11-29T23:57:54.640Z,30.73
